»·PEaware :: N9635H KSNA-KSNA

N9635H :: KSNA-KSNA

FLIGHT INFORMATION

Flight Status: Arrived
Operator: Privately registered:
United States
More flights under this callsign
Pilot: Rob M. (16242)
Aircraft: CESSNA 172 SKYHAWK
(C172)
More flights by this aircraft type
Origin: KSNA John Wayne-Orange Co
United States
Destination: KSNA John Wayne-Orange Co
United States
More flights between these airports :: More routes between these airports
Route: +
File this flight plan on PilotEdge
Remarks: I-1 Rating
Altitude:
(Current/Filed)
3,000ft
Speed:
(Current/Filed)
118kts
Departed: 12-Oct-17 08:49 PM
Arrived: 12-Oct-17 09:19 PM
Distance/Time
Traveled:
0nm/0:30
Distance/Time
To Go:
Arrived

Flight Plot

Page will automatically refresh every two minutes.


Map Options




Map Legend


Flown Route
Filed Route
Departure Airport
Arrival Airport
Navaid (VOR, NDB)
Fix

Horizontal Profiles

Position Reports

Time Latitude Longitude Heading Altitude Ground
Speed
12-Oct-17 20:41 33.672514 -117.873366 28 60ft 0kts
12-Oct-17 20:42 33.672514 -117.873366 28 60ft 0kts
12-Oct-17 20:43 33.672514 -117.873366 28 60ft 0kts
12-Oct-17 20:44 33.672514 -117.873366 28 60ft 0kts
12-Oct-17 20:45 33.672514 -117.873366 28 60ft 0kts
12-Oct-17 20:46 33.672514 -117.873366 28 60ft 0kts
12-Oct-17 20:47 33.672514 -117.873366 28 60ft 0kts
12-Oct-17 20:48 33.672518 -117.873363 27 60ft 1kts
12-Oct-17 20:49 33.672509 -117.872495 113 60ft 0kts
12-Oct-17 20:50 33.676037 -117.870105 28 60ft 29kts
12-Oct-17 20:51 33.681219 -117.866407 82 60ft 0kts
12-Oct-17 20:52 33.681219 -117.866407 82 60ft 0kts
12-Oct-17 20:53 33.672833 -117.870627 208 187ft 94kts
12-Oct-17 20:54 33.653730 -117.893263 233 1097ft 105kts
12-Oct-17 20:55 33.636432 -117.921704 258 1839ft 109kts
12-Oct-17 20:56 33.658695 -117.929529 18 2509ft 110kts
12-Oct-17 20:57 33.688899 -117.917010 16 2915ft 123kts
12-Oct-17 20:58 33.717504 -117.903514 21 2998ft 129kts
12-Oct-17 20:59 33.717504 -117.903514 21 2998ft 129kts
12-Oct-17 21:00 33.749641 -117.888106 20 3007ft 132kts
12-Oct-17 21:01 33.782880 -117.876231 20 2968ft 130kts
12-Oct-17 21:02 33.816039 -117.861026 18 2955ft 130kts
12-Oct-17 21:03 33.849213 -117.846272 19 3011ft 130kts
12-Oct-17 21:04 33.882260 -117.830823 21 3031ft 130kts
12-Oct-17 21:05 33.915757 -117.815706 15 3084ft 131kts
12-Oct-17 21:06 33.949616 -117.800623 20 3080ft 129kts
12-Oct-17 21:07 33.982157 -117.781979 54 3029ft 135kts
12-Oct-17 21:08 33.961471 -117.755635 158 2995ft 129kts
12-Oct-17 21:09 33.927315 -117.740171 184 2917ft 128kts
12-Oct-17 21:10 33.921768 -117.740747 184 2890ft 131kts
12-Oct-17 21:11 33.889560 -117.744927 187 2898ft 132kts
12-Oct-17 21:12 33.854155 -117.750840 186 2985ft 127kts
12-Oct-17 21:13 33.826022 -117.761916 223 3470ft 103kts
12-Oct-17 21:14 33.810736 -117.782174 217 3026ft 84kts
12-Oct-17 21:15 33.790818 -117.796720 210 2520ft 84kts
12-Oct-17 21:16 33.769769 -117.808649 217 2006ft 86kts
12-Oct-17 21:17 33.751604 -117.821934 200 1602ft 68kts
12-Oct-17 21:18 33.740745 -117.828203 204 1372ft 74kts
12-Oct-17 21:19 33.726011 -117.837819 207 1054ft 75kts
12-Oct-17 21:20 33.713688 -117.844796 200 802ft 72kts
12-Oct-17 21:21 33.696534 -117.856034 209 415ft 67kts
12-Oct-17 21:22 33.679544 -117.866391 207 63ft 57kts
12-Oct-17 21:23 33.669421 -117.871920 136 60ft 11kts
12-Oct-17 21:24 33.669348 -117.871834 133 60ft 0kts
12-Oct-17 21:25 33.669441 -117.870013 53 60ft 0kts
12-Oct-17 21:26 33.669441 -117.870013 53 60ft 0kts
12-Oct-17 21:27 33.669441 -117.870013 53 60ft 0kts
12-Oct-17 21:28 33.669441 -117.870013 53 60ft 0kts
12-Oct-17 21:29 33.669441 -117.870013 53 60ft 0kts
12-Oct-17 21:30 33.669441 -117.870013 53 60ft 0kts
12-Oct-17 21:31 33.669441 -117.870013 53 60ft 0kts
12-Oct-17 21:32 33.669445 -117.870005 46 60ft 0kts
12-Oct-17 21:33 33.669445 -117.870005 46 60ft 0kts
12-Oct-17 21:34 33.669445 -117.870005 46 60ft 0kts
12-Oct-17 21:36 33.669445 -117.870005 46 60ft 0kts
12-Oct-17 21:37 33.669445 -117.870005 46 60ft 0kts
12-Oct-17 21:38 33.669445 -117.870005 46 60ft 0kts

Navigation Log

Ident Type
1. KSNA Airport
2. KSNA Airport